SBILSBCF

Guest
Details From SBIL - Ilheus
To SBCF - Tancredo Neves
Flight Number -
Tags Decoded
Created
Modified
Stats Distance 404 nm / 749 km
Max Altitude 0 ft / 0 m
Waypoints 2
Social Downloads 1
Likes 0
Share VATSIM

Download

Looking for another format? Having issues loading an existing format? Contact us
Advertisement - Login to hide

Notes

Decoded

Route

SBIL SBCF

ID Type Via Altitude Latitude Longitude Leg Dist Tot Dist Heading (true) Name
O SBIL APT - 0 ft / 0 m -14.81617˚ -39.04046˚ - 0 nm - -
O SBCF APT - 0 ft / 0 m -19.62356˚ -43.97828˚ 404 nm 404 nm 224° / 225° -

Altitude Profile

Advertisement - Login to hide

Weather


0- 5 10 15 20 25 30 35+ Temperature / ° C

Clouds and Precipitation
Forecast for 2017-12-13 00:00 UTC. Updated 31 minutes ago

Ground ~20,000 ft ~40,000 ft Winds

SBIL

Details ICAO SBIL (IOS)
Name Ilheus
Region Brazil
Timezone America/Bahia (UTC-3.0)
Stats Elevation 15 ft / 5 m (AMSL)
Location -14.815964° -39.033197°
Runways 1
Magnetic Variation 23.684° W

METAR

Not found

TAF

TAF SBIL 121600Z 1218/1306 02007KT 7000 SCT015 SCT025 TX27/1218Z TN25/1305Z BECMG 1301/1303 35005KT SCT010 BKN018 RMK PCH

Decode

Departure Runways

ID Width Length Bearing (true) Bearing (mag) Surface Threshold Offset Overrun Length
11 148 ft / 45 m 5,127 ft / 1,563 m 88.35° 112.03° Asphalt 0 ft / 0 m 190 ft / 58 m
29 148 ft / 45 m 5,127 ft / 1,563 m 268.34° 292.02° Asphalt 0 ft / 0 m 160 ft / 49 m

SBCF

Details ICAO SBCF (CNF)
Name Tancredo Neves
Region Brazil
Timezone America/Sao_Paulo (UTC-2.0)
Stats Elevation 2,715 ft / 828 m (AMSL)
Location -19.633758° -43.968854°
Runways 1
Magnetic Variation 22.804° W

METAR

SBCF 122300Z 08008KT 9999 FEW040 BKN070 23/18 Q1017

Decode

TAF

TAF SBCF 121400Z 1218/1318 09005KT 9999 BKN020 FEW030TCU TX26/1218Z TN19/1309Z PROB30 1218/1222 4000 SHRA BKN012 FEW035TCU BECMG 1300/1302 9999 BNK015 PROB30 1307/1311BKN009 BECMG 1312/1314 18003KT 9999 BKN020 RMK PDC

Decode

Destination Runways

ID Width Length Bearing (true) Bearing (mag) Surface Threshold Offset Overrun Length
16 148 ft / 45 m 9,872 ft / 3,009 m 138.97° 161.77° Asphalt 0 ft / 0 m 203 ft / 62 m
34 148 ft / 45 m 9,872 ft / 3,009 m 318.96° 341.76° Asphalt 0 ft / 0 m 203 ft / 62 m

Approach Navaids

Runway Type Ident Frequency Range Bearing (true) Bearing (mag) Slope Elevation
16 Localiser ICF 109.70 MHz 18 nm / 33 km 138.90° 161.71° - 2,716 ft / 828 m (AMSL)
16 Glidescope ICF 109.70 MHz 10 nm / 19 km 138.96° 161.77° 3.00° 2,716 ft / 828 m (AMSL)